createdAt,value
2019-03-13T00:01:01.961Z,1.60
2019-03-13T00:03:30.526Z,1.93
2019-03-13T00:05:59.087Z,1.60
2019-03-13T00:08:27.729Z,1.80
2019-03-13T00:10:56.194Z,1.60
2019-03-13T00:13:24.879Z,2.37
2019-03-13T00:15:53.449Z,1.93
2019-03-13T00:18:21.972Z,2.20
2019-03-13T00:20:50.449Z,1.50
2019-03-13T00:23:18.925Z,2.17
2019-03-13T00:25:47.739Z,1.87
2019-03-13T00:28:16.352Z,2.73
2019-03-13T00:30:44.893Z,2.10
2019-03-13T00:33:13.533Z,2.07
2019-03-13T00:35:42.371Z,1.33
2019-03-13T00:38:10.987Z,2.70
2019-03-13T00:40:39.544Z,1.40
2019-03-13T00:43:08.096Z,1.57
2019-03-13T00:45:36.640Z,2.03
2019-03-13T00:48:05.109Z,2.80
2019-03-13T00:50:33.753Z,3.07
2019-03-13T00:53:02.308Z,2.27
2019-03-13T00:55:30.848Z,1.73
2019-03-13T00:57:59.365Z,1.60
2019-03-13T01:00:38.621Z,1.57
2019-03-13T01:03:08.828Z,3.20
2019-03-13T01:05:38.993Z,1.70
2019-03-13T01:08:07.483Z,1.40
2019-03-13T01:10:36.191Z,1.30
2019-03-13T01:13:04.671Z,1.50
2019-03-13T01:15:33.129Z,1.63
2019-03-13T01:18:01.615Z,1.53
2019-03-13T01:20:30.167Z,1.50
2019-03-13T01:22:58.710Z,3.40
2019-03-13T01:25:27.162Z,1.77
2019-03-13T01:27:55.711Z,1.63
2019-03-13T01:30:25.368Z,1.40
2019-03-13T01:32:55.491Z,1.63
2019-03-13T01:35:25.675Z,2.00
2019-03-13T01:37:54.223Z,1.93
2019-03-13T01:40:22.669Z,2.70
2019-03-13T01:42:51.154Z,1.80
2019-03-13T01:45:19.697Z,1.30
2019-03-13T01:47:48.312Z,1.83
2019-03-13T01:50:16.800Z,2.03
2019-03-13T01:52:45.324Z,1.50
2019-03-13T01:55:13.883Z,1.50
2019-03-13T01:57:42.418Z,1.50
2019-03-13T02:00:16.452Z,1.77
2019-03-13T02:02:44.962Z,1.80
2019-03-13T02:05:13.587Z,1.40
2019-03-13T02:07:42.112Z,1.93
2019-03-13T02:10:12.046Z,2.07
2019-03-13T02:12:40.569Z,1.50
2019-03-13T02:15:11.589Z,1.77
2019-03-13T02:17:40.116Z,1.43
2019-03-13T02:20:10.171Z,2.40
2019-03-13T02:22:38.660Z,2.27
2019-03-13T02:25:09.468Z,1.40
2019-03-13T02:27:38.200Z,3.00
2019-03-13T02:30:15.625Z,1.53
2019-03-13T02:32:44.094Z,1.23
2019-03-13T02:35:12.674Z,2.53
2019-03-13T02:37:41.270Z,1.77
2019-03-13T02:40:14.903Z,2.53
2019-03-13T02:42:43.526Z,2.53
2019-03-13T02:45:13.126Z,2.03
2019-03-13T02:47:41.674Z,2.50
2019-03-13T02:50:15.678Z,2.07
2019-03-13T02:52:44.156Z,4.43
2019-03-13T02:55:13.085Z,1.37
2019-03-13T02:57:41.561Z,1.10
2019-03-13T03:00:16.580Z,0.70
2019-03-13T03:02:49.640Z,0.87
2019-03-13T03:05:18.437Z,0.70
2019-03-13T03:07:46.915Z,0.90
2019-03-13T03:10:15.514Z,2.77
2019-03-13T03:12:44.072Z,0.80
2019-03-13T03:15:17.821Z,1.10
2019-03-13T03:17:46.411Z,0.90
2019-03-13T03:20:19.968Z,1.00
2019-03-13T03:22:48.507Z,1.13
2019-03-13T03:25:18.008Z,0.90
2019-03-13T03:27:46.594Z,1.00
2019-03-13T03:30:23.220Z,1.00
2019-03-13T03:32:51.829Z,1.00
2019-03-13T03:35:20.471Z,1.60
2019-03-13T03:37:49.067Z,1.00
2019-03-13T03:40:22.927Z,0.90
2019-03-13T03:42:52.210Z,1.10
2019-03-13T03:45:20.830Z,1.10
2019-03-13T03:47:49.464Z,1.10
2019-03-13T03:50:18.710Z,1.10
2019-03-13T03:52:47.231Z,1.10
2019-03-13T03:55:16.821Z,1.17
2019-03-13T03:57:45.438Z,1.10
2019-03-13T04:00:16.411Z,0.93
2019-03-13T04:02:44.940Z,1.40
2019-03-13T04:05:13.967Z,1.20
2019-03-13T04:07:42.755Z,1.20
2019-03-13T04:10:15.279Z,1.07
2019-03-13T04:12:43.810Z,1.00
2019-03-13T04:15:13.879Z,0.90
2019-03-13T04:17:42.339Z,0.90
2019-03-13T04:20:15.054Z,1.23
2019-03-13T04:22:43.572Z,1.00
2019-03-13T04:25:14.837Z,1.00
2019-03-13T04:27:43.369Z,1.20
2019-03-13T04:30:12.892Z,1.10
2019-03-13T04:32:41.374Z,1.10
2019-03-13T04:35:09.913Z,1.47
2019-03-13T04:37:38.565Z,1.07
2019-03-13T04:40:11.919Z,1.10
2019-03-13T04:42:40.399Z,1.17
2019-03-13T04:45:10.765Z,1.10
2019-03-13T04:47:39.238Z,1.07
2019-03-13T04:50:13.051Z,1.30
2019-03-13T04:52:41.699Z,1.00
2019-03-13T04:55:16.541Z,1.30
2019-03-13T04:57:45.143Z,2.70
2019-03-13T05:00:17.803Z,1.20
2019-03-13T05:02:46.617Z,1.80
2019-03-13T05:05:41.645Z,0.93
2019-03-13T05:08:13.364Z,1.10
2019-03-13T05:10:42.013Z,1.63
2019-03-13T05:13:12.017Z,1.07
2019-03-13T05:15:40.858Z,1.40
2019-03-13T05:18:09.311Z,1.30
2019-03-13T05:20:37.819Z,1.00
2019-03-13T05:23:06.331Z,1.13
2019-03-13T05:25:34.813Z,1.20
2019-03-13T05:28:03.348Z,1.97
2019-03-13T05:30:31.898Z,1.40
2019-03-13T05:33:00.416Z,1.17
2019-03-13T05:35:28.975Z,1.10
2019-03-13T05:37:57.481Z,1.07
2019-03-13T05:40:25.972Z,1.30
2019-03-13T05:42:54.475Z,0.97
2019-03-13T05:45:23.125Z,1.10
2019-03-13T05:47:51.855Z,3.23
2019-03-13T05:50:20.322Z,2.40
2019-03-13T05:52:48.806Z,0.97
2019-03-13T05:55:17.253Z,1.93
2019-03-13T05:57:45.993Z,1.10
2019-03-13T06:00:16.332Z,1.90
2019-03-13T06:02:47.668Z,2.00
2019-03-13T06:05:15.165Z,1.33
2019-03-13T06:07:43.672Z,1.33
2019-03-13T06:10:15.726Z,1.13
2019-03-13T06:12:46.444Z,0.90
2019-03-13T06:15:15.785Z,1.30
2019-03-13T06:17:44.265Z,0.90
2019-03-13T06:20:17.475Z,0.90
2019-03-13T06:22:46.318Z,0.97
2019-03-13T06:25:15.108Z,1.00
2019-03-13T06:27:46.132Z,1.20
2019-03-13T06:30:15.854Z,1.27
2019-03-13T06:32:44.308Z,1.63
2019-03-13T06:35:13.022Z,1.00
2019-03-13T06:37:41.488Z,1.33
2019-03-13T06:40:12.336Z,0.90
2019-03-13T06:42:40.814Z,1.57
2019-03-13T06:45:11.706Z,1.70
2019-03-13T06:47:40.257Z,1.40
2019-03-13T06:50:17.146Z,1.40
2019-03-13T06:52:45.606Z,1.57
2019-03-13T06:55:15.252Z,1.20
2019-03-13T06:57:43.705Z,1.53
2019-03-13T07:00:35.331Z,1.20
2019-03-13T07:03:20.597Z,1.53
2019-03-13T07:05:56.669Z,1.30
2019-03-13T07:08:42.944Z,1.07
2019-03-13T07:11:13.066Z,1.00
2019-03-13T07:13:49.347Z,1.20
2019-03-13T07:16:19.463Z,1.43
2019-03-13T07:18:49.567Z,1.40
2019-03-13T07:21:19.691Z,1.40
2019-03-13T07:23:58.939Z,2.93
2019-03-13T07:26:35.017Z,1.23
2019-03-13T07:29:12.178Z,1.57
2019-03-13T07:31:36.969Z,1.80
2019-03-13T07:34:07.071Z,1.60
2019-03-13T07:36:43.196Z,1.70
2019-03-13T07:39:13.295Z,1.90
2019-03-13T07:41:49.425Z,1.40
2019-03-13T07:44:35.831Z,1.50
2019-03-13T07:47:17.853Z,2.90
2019-03-13T07:49:50.433Z,1.50
2019-03-13T07:52:20.534Z,2.63
2019-03-13T07:55:06.657Z,4.03
2019-03-13T07:57:39.512Z,1.93
2019-03-13T08:00:18.073Z,1.60
2019-03-13T08:02:48.210Z,2.33
2019-03-13T08:05:24.350Z,2.03
2019-03-13T08:07:54.481Z,3.60
2019-03-13T08:10:30.582Z,2.00
2019-03-13T08:13:06.688Z,2.23
2019-03-13T08:15:43.118Z,2.03
2019-03-13T08:18:31.567Z,1.63
2019-03-13T08:21:17.976Z,2.87
2019-03-13T08:24:04.587Z,2.47
2019-03-13T08:26:37.437Z,1.80
2019-03-13T08:29:19.482Z,1.80
2019-03-13T08:32:07.659Z,2.27
2019-03-13T08:34:40.889Z,3.00
2019-03-13T08:37:23.210Z,3.30
2019-03-13T08:39:53.401Z,3.03
2019-03-13T08:42:32.503Z,2.00
2019-03-13T08:45:08.827Z,2.73
2019-03-13T08:47:57.251Z,3.83
2019-03-13T08:50:33.391Z,2.57
2019-03-13T08:53:03.489Z,4.63
2019-03-13T08:55:39.387Z,1.60
2019-03-13T08:58:21.765Z,1.80
2019-03-13T09:00:54.390Z,2.23
2019-03-13T09:03:24.618Z,1.77
2019-03-13T09:06:00.383Z,2.03
2019-03-13T09:08:46.612Z,1.70
2019-03-13T09:11:19.592Z,1.80
2019-03-13T09:13:49.715Z,3.13
2019-03-13T09:16:20.061Z,1.97
2019-03-13T09:18:59.149Z,3.17
2019-03-13T09:21:47.411Z,3.50
2019-03-13T09:24:17.516Z,2.93
2019-03-13T09:27:04.343Z,1.47
2019-03-13T09:29:37.149Z,2.07
2019-03-13T09:32:16.340Z,1.47
2019-03-13T09:34:52.115Z,3.97
2019-03-13T09:37:22.255Z,2.20
2019-03-13T09:40:08.888Z,1.50
2019-03-13T09:42:48.071Z,1.53
2019-03-13T09:45:18.173Z,3.00
2019-03-13T09:47:51.549Z,2.10
2019-03-13T09:50:33.957Z,3.57
2019-03-13T09:53:13.309Z,3.37
2019-03-13T09:55:46.071Z,2.40
2019-03-13T09:58:25.352Z,1.50
2019-03-13T10:01:11.411Z,3.07
2019-03-13T10:03:56.553Z,1.57
2019-03-13T10:06:26.663Z,3.07
2019-03-13T10:09:02.647Z,1.30
2019-03-13T10:11:38.687Z,1.73
2019-03-13T10:14:20.411Z,3.53
2019-03-13T10:16:50.512Z,1.83
2019-03-13T10:19:29.521Z,1.80
2019-03-13T10:22:17.777Z,1.87
2019-03-13T10:25:02.704Z,1.77
2019-03-13T10:27:41.866Z,5.07
2019-03-13T10:30:20.357Z,1.97
2019-03-13T10:32:50.525Z,1.90
2019-03-13T10:35:45.768Z,2.20
2019-03-13T10:38:15.863Z,1.37
2019-03-13T10:40:48.996Z,1.90
2019-03-13T10:43:21.858Z,1.23
2019-03-13T10:45:52.017Z,1.20
2019-03-13T10:48:24.852Z,1.83
2019-03-13T10:50:54.954Z,1.30
2019-03-13T10:53:25.079Z,1.87
2019-03-13T10:55:55.429Z,1.80
2019-03-13T10:58:42.236Z,1.50
2019-03-13T11:01:15.288Z,2.50
2019-03-13T11:03:45.472Z,1.27
2019-03-13T11:06:24.326Z,1.43
2019-03-13T11:08:57.528Z,1.87
2019-03-13T11:11:33.390Z,2.70
2019-03-13T11:14:16.137Z,3.17
2019-03-13T11:16:52.234Z,2.50
2019-03-13T11:19:22.352Z,1.97
2019-03-13T11:21:55.484Z,1.13
2019-03-13T11:24:25.600Z,1.43
2019-03-13T11:27:01.496Z,2.73
2019-03-13T11:29:34.576Z,1.53
2019-03-13T11:32:07.364Z,1.17
2019-03-13T11:34:53.981Z,4.00
2019-03-13T11:37:40.570Z,1.47
2019-03-13T11:40:16.688Z,2.23
2019-03-13T11:43:03.084Z,2.13
2019-03-13T11:45:33.266Z,1.53
2019-03-13T11:48:06.341Z,2.33
2019-03-13T11:50:39.210Z,3.23
2019-03-13T11:53:21.056Z,1.57
2019-03-13T11:55:54.218Z,1.43
2019-03-13T11:58:24.462Z,1.93
2019-03-13T12:00:57.417Z,3.33
2019-03-13T12:03:30.372Z,2.03
2019-03-13T12:06:03.005Z,1.87
2019-03-13T12:08:33.186Z,1.93
2019-03-13T12:11:21.480Z,1.80
2019-03-13T12:13:57.551Z,2.70
2019-03-13T12:16:27.668Z,2.90
2019-03-13T12:19:06.520Z,3.33
2019-03-13T12:21:39.291Z,4.37
2019-03-13T12:24:12.422Z,1.93
2019-03-13T12:26:48.514Z,3.10
2019-03-13T12:29:36.773Z,2.77
2019-03-13T12:32:15.926Z,1.73
2019-03-13T12:34:51.583Z,2.90
2019-03-13T12:37:37.904Z,2.07
2019-03-13T12:40:11.447Z,2.00
2019-03-13T12:42:57.768Z,1.87
2019-03-13T12:45:27.890Z,2.30
2019-03-13T12:47:58.162Z,2.50
2019-03-13T12:50:34.087Z,2.53
2019-03-13T12:53:15.006Z,2.10
2019-03-13T12:55:51.050Z,2.17
2019-03-13T12:58:36.257Z,1.93
2019-03-13T13:01:22.473Z,3.60
2019-03-13T13:03:55.816Z,1.63
2019-03-13T13:06:34.869Z,2.00
2019-03-13T13:09:21.377Z,2.23
2019-03-13T13:12:07.729Z,2.57
2019-03-13T13:14:53.068Z,1.80
2019-03-13T13:17:25.862Z,4.30
2019-03-13T13:19:54.322Z,3.00
2019-03-13T13:22:22.786Z,2.07
2019-03-13T13:24:51.276Z,3.67
2019-03-13T13:27:19.752Z,2.93
2019-03-13T13:29:48.226Z,3.90
2019-03-13T13:32:16.776Z,3.87
2019-03-13T13:34:45.267Z,2.23
2019-03-13T13:37:13.767Z,2.50
2019-03-13T13:39:42.230Z,2.03
2019-03-13T13:42:10.857Z,2.00
2019-03-13T13:44:39.315Z,2.50
2019-03-13T13:47:07.883Z,2.87
2019-03-13T13:49:36.437Z,2.07
2019-03-13T13:52:05.131Z,4.10
2019-03-13T13:54:33.598Z,1.50
2019-03-13T13:57:02.066Z,4.00
2019-03-13T13:59:30.793Z,2.40
2019-03-13T14:01:59.247Z,1.97
2019-03-13T14:04:27.723Z,4.60
2019-03-13T14:06:56.173Z,2.43
2019-03-13T14:09:24.665Z,2.17
2019-03-13T14:11:53.207Z,2.83
2019-03-13T14:14:21.777Z,3.57
2019-03-13T14:16:50.241Z,4.07
2019-03-13T14:19:18.701Z,4.73
2019-03-13T14:21:47.349Z,2.97
2019-03-13T14:24:17.417Z,2.33
2019-03-13T14:26:46.195Z,1.43
2019-03-13T14:29:14.687Z,2.33
2019-03-13T14:31:43.333Z,2.57
2019-03-13T14:34:12.079Z,3.67
2019-03-13T14:36:40.628Z,4.17
2019-03-13T14:39:09.249Z,1.10
2019-03-13T14:41:37.715Z,1.93
2019-03-13T14:44:06.227Z,2.03
2019-03-13T14:46:34.740Z,1.87
2019-03-13T14:49:03.201Z,1.97
2019-03-13T14:51:31.679Z,2.90
2019-03-13T14:54:00.157Z,4.43
2019-03-13T14:56:28.617Z,1.87
2019-03-13T14:58:57.090Z,1.73
2019-03-13T15:01:25.569Z,1.53
2019-03-13T15:03:55.921Z,3.03
2019-03-13T15:06:24.393Z,2.57
2019-03-13T15:08:53.123Z,2.23
2019-03-13T15:11:21.587Z,3.07
2019-03-13T15:13:50.063Z,1.67
2019-03-13T15:16:18.539Z,3.43
2019-03-13T15:18:47.093Z,2.60
2019-03-13T15:21:15.649Z,3.17
2019-03-13T15:23:44.255Z,2.20
2019-03-13T15:26:12.899Z,1.87
2019-03-13T15:28:41.526Z,2.03
2019-03-13T15:31:10.145Z,2.70
2019-03-13T15:33:38.733Z,2.23
2019-03-13T15:36:07.321Z,2.53
2019-03-13T15:38:35.872Z,2.00
2019-03-13T15:41:04.400Z,2.97
2019-03-13T15:43:32.878Z,3.20
2019-03-13T15:46:01.328Z,3.33
2019-03-13T15:48:29.807Z,2.53
2019-03-13T15:50:58.290Z,3.83
2019-03-13T15:53:26.777Z,3.20
2019-03-13T15:55:55.265Z,3.37
2019-03-13T15:58:23.768Z,2.60
2019-03-13T16:00:52.341Z,4.90
2019-03-13T16:03:20.893Z,3.40
2019-03-13T16:05:49.549Z,1.97
2019-03-13T16:08:18.209Z,2.17
2019-03-13T16:10:46.671Z,5.33
2019-03-13T16:13:15.168Z,2.93
2019-03-13T16:15:46.139Z,3.37
2019-03-13T16:18:14.577Z,3.03
2019-03-13T16:20:43.049Z,3.40
2019-03-13T16:23:11.533Z,2.97
2019-03-13T16:25:40.020Z,2.63
2019-03-13T16:28:08.580Z,2.07
2019-03-13T16:30:48.029Z,2.40
2019-03-13T16:33:16.485Z,2.17
2019-03-13T16:35:44.943Z,3.10
2019-03-13T16:38:13.425Z,3.03
2019-03-13T16:40:41.905Z,2.53
2019-03-13T16:43:10.446Z,1.90
2019-03-13T16:45:38.911Z,2.47
2019-03-13T16:48:07.538Z,2.70
2019-03-13T16:50:37.639Z,3.63
2019-03-13T16:53:06.434Z,4.67
2019-03-13T16:55:35.278Z,2.53
2019-03-13T16:58:03.936Z,2.20
2019-03-13T17:00:33.673Z,3.73
2019-03-13T17:03:02.266Z,5.13
2019-03-13T17:05:30.759Z,2.70
2019-03-13T17:07:59.364Z,3.00
2019-03-13T17:10:29.095Z,3.60
2019-03-13T17:12:57.768Z,3.03
2019-03-13T17:15:27.226Z,5.70
2019-03-13T17:17:55.952Z,4.23
2019-03-13T17:20:29.910Z,3.33
2019-03-13T17:22:58.548Z,2.20
2019-03-13T17:25:27.144Z,5.33
2019-03-13T17:27:55.637Z,5.50
2019-03-13T17:30:30.064Z,4.27
2019-03-13T17:32:59.325Z,3.90
2019-03-13T17:35:28.029Z,4.87
2019-03-13T17:37:56.585Z,3.87
2019-03-13T17:40:27.251Z,3.67
2019-03-13T17:42:56.604Z,3.63
2019-03-13T17:45:25.806Z,5.03
2019-03-13T17:47:54.440Z,3.97
2019-03-13T17:50:26.352Z,3.73
2019-03-13T17:52:55.181Z,1.97
2019-03-13T17:55:27.497Z,7.03
2019-03-13T17:57:56.069Z,3.67
2019-03-13T18:00:31.601Z,5.10
2019-03-13T18:03:00.231Z,3.90
2019-03-13T18:05:28.905Z,3.57
2019-03-13T18:07:57.491Z,3.90
2019-03-13T18:10:25.946Z,2.50
2019-03-13T18:12:54.412Z,5.40
2019-03-13T18:15:22.893Z,6.97
2019-03-13T18:17:51.348Z,5.47
2019-03-13T18:20:25.052Z,6.30
2019-03-13T18:22:53.649Z,1.93
2019-03-13T18:25:22.278Z,5.10
2019-03-13T18:27:50.749Z,4.13
2019-03-13T18:30:24.781Z,2.37
2019-03-13T18:32:53.675Z,2.10
2019-03-13T18:35:22.469Z,4.57
2019-03-13T18:37:51.073Z,3.07
2019-03-13T18:40:21.099Z,2.23
2019-03-13T18:42:49.961Z,4.43
2019-03-13T18:45:23.114Z,3.47
2019-03-13T18:47:51.810Z,3.93
2019-03-13T18:50:20.873Z,4.87
2019-03-13T18:52:49.498Z,4.37
2019-03-13T18:55:26.650Z,3.27
2019-03-13T18:57:55.266Z,3.93
2019-03-13T19:00:26.279Z,3.17
2019-03-13T19:02:54.819Z,3.80
2019-03-13T19:05:23.549Z,4.67
2019-03-13T19:07:52.136Z,5.40
2019-03-13T19:10:25.366Z,4.27
2019-03-13T19:12:54.056Z,4.77
2019-03-13T19:15:24.114Z,4.93
2019-03-13T19:17:52.660Z,4.73
2019-03-13T19:20:31.676Z,4.40
2019-03-13T19:23:00.413Z,5.10
2019-03-13T19:25:28.947Z,3.57
2019-03-13T19:27:57.804Z,3.97
2019-03-13T19:30:31.161Z,3.60
2019-03-13T19:32:59.809Z,4.63
2019-03-13T19:35:28.337Z,5.27
2019-03-13T19:37:59.988Z,3.40
2019-03-13T19:40:28.439Z,6.63
2019-03-13T19:42:56.995Z,6.20
2019-03-13T19:45:40.299Z,3.03
2019-03-13T19:48:08.915Z,5.93
2019-03-13T19:50:37.450Z,3.97
2019-03-13T19:53:06.232Z,4.33
2019-03-13T19:55:34.919Z,4.57
2019-03-13T19:58:03.578Z,5.03
2019-03-13T20:00:32.284Z,4.57
2019-03-13T20:03:08.987Z,4.37
2019-03-13T20:05:45.170Z,3.97
2019-03-13T20:08:07.763Z,6.33
2019-03-13T20:10:36.432Z,3.23
2019-03-13T20:13:05.161Z,4.07
2019-03-13T20:15:35.845Z,5.83
2019-03-13T20:18:05.217Z,4.17
2019-03-13T20:20:33.711Z,3.33
2019-03-13T20:23:07.235Z,4.70
2019-03-13T20:25:35.773Z,7.53
2019-03-13T20:28:04.669Z,4.37
2019-03-13T20:30:33.425Z,4.07
2019-03-13T20:33:02.045Z,5.50
2019-03-13T20:35:30.524Z,3.80
2019-03-13T20:38:00.190Z,3.57
2019-03-13T20:40:28.979Z,2.93
2019-03-13T20:42:57.574Z,6.30
2019-03-13T20:45:27.514Z,3.83
2019-03-13T20:47:56.321Z,3.37
2019-03-13T20:50:35.935Z,2.20
2019-03-13T20:52:55.305Z,2.70
2019-03-13T20:55:24.468Z,3.87
2019-03-13T20:57:53.092Z,3.17
2019-03-13T21:00:26.336Z,3.33
2019-03-13T21:02:56.053Z,3.17
2019-03-13T21:05:25.194Z,3.67
2019-03-13T21:07:54.312Z,4.70
2019-03-13T21:10:23.130Z,4.63
2019-03-13T21:12:51.689Z,4.20
2019-03-13T21:15:25.096Z,3.57
2019-03-13T21:17:53.921Z,6.13
2019-03-13T21:20:22.867Z,2.20
2019-03-13T21:22:51.478Z,2.97
2019-03-13T21:25:22.282Z,3.73
2019-03-13T21:27:50.840Z,2.87
2019-03-13T21:30:24.715Z,3.00
2019-03-13T21:32:53.378Z,3.10
2019-03-13T21:35:22.244Z,3.40
2019-03-13T21:37:51.051Z,2.10
2019-03-13T21:40:21.433Z,2.07
2019-03-13T21:42:50.032Z,2.37
2019-03-13T21:45:22.750Z,2.27
2019-03-13T21:47:49.060Z,1.93
2019-03-13T21:50:19.270Z,2.30
2019-03-13T21:52:48.169Z,1.60
2019-03-13T21:55:17.671Z,1.53
2019-03-13T21:57:46.276Z,4.87
2019-03-13T22:00:25.397Z,3.57
2019-03-13T22:02:54.201Z,2.37
2019-03-13T22:05:26.390Z,1.60
2019-03-13T22:07:53.552Z,1.63
2019-03-13T22:10:22.245Z,3.07
2019-03-13T22:12:51.679Z,1.83
2019-03-13T22:15:21.619Z,1.90
2019-03-13T22:17:50.417Z,3.30
2019-03-13T22:20:19.326Z,1.70
2019-03-13T22:22:47.960Z,1.77
2019-03-13T22:25:18.039Z,2.10
2019-03-13T22:27:46.497Z,2.57
2019-03-13T22:30:22.541Z,2.23
2019-03-13T22:32:51.343Z,2.03
2019-03-13T22:35:19.894Z,1.77
2019-03-13T22:37:48.589Z,1.50
2019-03-13T22:40:17.992Z,2.30
2019-03-13T22:42:46.797Z,1.80
2019-03-13T22:45:20.136Z,1.77
2019-03-13T22:47:48.836Z,2.33
2019-03-13T22:50:22.729Z,1.60
2019-03-13T22:52:51.538Z,2.53
2019-03-13T22:55:20.170Z,1.60
2019-03-13T22:57:48.715Z,2.60
2019-03-13T23:00:27.663Z,1.87
2019-03-13T23:02:56.184Z,1.43
2019-03-13T23:05:24.774Z,2.00
2019-03-13T23:07:53.379Z,2.43
2019-03-13T23:10:32.835Z,1.80
2019-03-13T23:13:01.432Z,1.37
2019-03-13T23:15:30.046Z,1.17
2019-03-13T23:17:58.493Z,1.33
2019-03-13T23:20:27.044Z,1.10
2019-03-13T23:22:55.527Z,1.20
2019-03-13T23:25:24.069Z,1.30
2019-03-13T23:27:52.852Z,1.73
2019-03-13T23:30:21.392Z,1.13
2019-03-13T23:32:50.108Z,1.33
2019-03-13T23:35:18.595Z,1.90
2019-03-13T23:37:47.160Z,1.30
2019-03-13T23:40:15.727Z,1.40
2019-03-13T23:42:44.389Z,1.47
2019-03-13T23:45:12.995Z,1.40
2019-03-13T23:47:41.537Z,1.50
2019-03-13T23:50:14.289Z,1.23
2019-03-13T23:52:43.001Z,1.60
2019-03-13T23:55:11.697Z,1.53
2019-03-13T23:57:40.366Z,1.40
